sensor_id;sensor_type;location;lat;lon;timestamp;temperature;humidity
79760;DHT22;69248;42.138;24.742;2023-05-10T00:00:56;13.60;64.90
79760;DHT22;69248;42.138;24.742;2023-05-10T00:03:23;13.60;65.10
79760;DHT22;69248;42.138;24.742;2023-05-10T00:05:51;13.60;64.90
79760;DHT22;69248;42.138;24.742;2023-05-10T00:08:18;13.50;64.70
79760;DHT22;69248;42.138;24.742;2023-05-10T00:10:46;13.60;65.00
79760;DHT22;69248;42.138;24.742;2023-05-10T00:13:13;13.50;64.90
79760;DHT22;69248;42.138;24.742;2023-05-10T00:15:41;13.50;65.10
79760;DHT22;69248;42.138;24.742;2023-05-10T00:18:09;13.50;65.50
79760;DHT22;69248;42.138;24.742;2023-05-10T00:20:36;13.50;65.90
79760;DHT22;69248;42.138;24.742;2023-05-10T00:23:04;13.40;66.50
79760;DHT22;69248;42.138;24.742;2023-05-10T00:25:32;13.40;66.80
79760;DHT22;69248;42.138;24.742;2023-05-10T00:27:59;13.40;67.10
79760;DHT22;69248;42.138;24.742;2023-05-10T00:30:28;13.40;67.60
79760;DHT22;69248;42.138;24.742;2023-05-10T00:32:55;13.40;68.30
79760;DHT22;69248;42.138;24.742;2023-05-10T00:35:23;13.50;68.20
79760;DHT22;69248;42.138;24.742;2023-05-10T00:37:51;13.50;68.10
79760;DHT22;69248;42.138;24.742;2023-05-10T00:40:18;13.60;67.90
79760;DHT22;69248;42.138;24.742;2023-05-10T00:42:46;13.60;67.80
79760;DHT22;69248;42.138;24.742;2023-05-10T00:45:14;13.60;67.60
79760;DHT22;69248;42.138;24.742;2023-05-10T00:47:41;13.60;67.80
79760;DHT22;69248;42.138;24.742;2023-05-10T00:50:09;13.60;68.10
79760;DHT22;69248;42.138;24.742;2023-05-10T00:52:37;13.50;68.30
79760;DHT22;69248;42.138;24.742;2023-05-10T00:55:05;13.50;68.40
79760;DHT22;69248;42.138;24.742;2023-05-10T00:57:33;13.40;68.50
79760;DHT22;69248;42.138;24.742;2023-05-10T01:00:02;13.40;68.60
79760;DHT22;69248;42.138;24.742;2023-05-10T01:02:29;13.40;68.70
79760;DHT22;69248;42.138;24.742;2023-05-10T01:04:57;13.40;69.00
79760;DHT22;69248;42.138;24.742;2023-05-10T01:07:25;13.40;69.50
79760;DHT22;69248;42.138;24.742;2023-05-10T01:09:53;13.40;69.40
79760;DHT22;69248;42.138;24.742;2023-05-10T01:12:20;13.40;68.90
79760;DHT22;69248;42.138;24.742;2023-05-10T01:14:48;13.40;69.10
79760;DHT22;69248;42.138;24.742;2023-05-10T01:17:16;13.30;69.10
79760;DHT22;69248;42.138;24.742;2023-05-10T01:19:43;13.30;69.20
79760;DHT22;69248;42.138;24.742;2023-05-10T01:27:47;13.20;69.60
79760;DHT22;69248;42.138;24.742;2023-05-10T01:30:40;13.10;70.10
79760;DHT22;69248;42.138;24.742;2023-05-10T01:33:24;13.10;70.00
79760;DHT22;69248;42.138;24.742;2023-05-10T01:43:54;13.00;70.20
79760;DHT22;69248;42.138;24.742;2023-05-10T01:46:27;13.00;70.50
79760;DHT22;69248;42.138;24.742;2023-05-10T01:48:52;13.00;70.80
79760;DHT22;69248;42.138;24.742;2023-05-10T01:51:28;13.00;70.80
79760;DHT22;69248;42.138;24.742;2023-05-10T01:53:54;13.00;70.90
79760;DHT22;69248;42.138;24.742;2023-05-10T01:56:24;13.00;71.00
79760;DHT22;69248;42.138;24.742;2023-05-10T01:58:53;13.00;71.10
79760;DHT22;69248;42.138;24.742;2023-05-10T02:01:23;13.00;70.80
79760;DHT22;69248;42.138;24.742;2023-05-10T02:03:53;12.90;70.90
79760;DHT22;69248;42.138;24.742;2023-05-10T02:06:22;12.90;71.20
79760;DHT22;69248;42.138;24.742;2023-05-10T02:08:51;12.90;71.00
79760;DHT22;69248;42.138;24.742;2023-05-10T02:11:21;12.90;71.40
79760;DHT22;69248;42.138;24.742;2023-05-10T02:13:50;12.90;71.70
79760;DHT22;69248;42.138;24.742;2023-05-10T02:16:18;12.90;71.40
79760;DHT22;69248;42.138;24.742;2023-05-10T02:18:51;13.00;71.20
79760;DHT22;69248;42.138;24.742;2023-05-10T02:21:20;12.90;70.60
79760;DHT22;69248;42.138;24.742;2023-05-10T02:23:50;12.90;71.00
79760;DHT22;69248;42.138;24.742;2023-05-10T02:26:21;12.80;70.90
79760;DHT22;69248;42.138;24.742;2023-05-10T02:28:50;12.80;71.10
79760;DHT22;69248;42.138;24.742;2023-05-10T02:31:19;12.90;71.00
79760;DHT22;69248;42.138;24.742;2023-05-10T02:33:48;12.80;70.70
79760;DHT22;69248;42.138;24.742;2023-05-10T02:36:17;12.80;70.90
79760;DHT22;69248;42.138;24.742;2023-05-10T02:38:44;12.80;70.90
79760;DHT22;69248;42.138;24.742;2023-05-10T02:41:13;12.80;70.90
79760;DHT22;69248;42.138;24.742;2023-05-10T02:43:42;12.80;71.10
79760;DHT22;69248;42.138;24.742;2023-05-10T02:46:10;12.90;71.00
79760;DHT22;69248;42.138;24.742;2023-05-10T02:48:38;12.90;70.90
79760;DHT22;69248;42.138;24.742;2023-05-10T02:51:07;13.00;71.20
79760;DHT22;69248;42.138;24.742;2023-05-10T02:53:36;13.00;70.80
79760;DHT22;69248;42.138;24.742;2023-05-10T02:56:15;13.00;71.50
79760;DHT22;69248;42.138;24.742;2023-05-10T02:58:39;13.00;70.80
79760;DHT22;69248;42.138;24.742;2023-05-10T03:01:07;13.00;70.50
79760;DHT22;69248;42.138;24.742;2023-05-10T03:03:36;12.90;70.70
79760;DHT22;69248;42.138;24.742;2023-05-10T03:06:04;12.90;71.10
79760;DHT22;69248;42.138;24.742;2023-05-10T03:08:31;12.80;70.70
79760;DHT22;69248;42.138;24.742;2023-05-10T03:13:55;12.70;71.10
79760;DHT22;69248;42.138;24.742;2023-05-10T03:16:24;12.70;71.40
79760;DHT22;69248;42.138;24.742;2023-05-10T03:18:59;12.70;71.70
79760;DHT22;69248;42.138;24.742;2023-05-10T03:21:22;12.60;72.40
79760;DHT22;69248;42.138;24.742;2023-05-10T03:24:05;12.60;71.70
79760;DHT22;69248;42.138;24.742;2023-05-10T03:26:25;12.60;71.50
79760;DHT22;69248;42.138;24.742;2023-05-10T03:28:54;12.60;71.70
79760;DHT22;69248;42.138;24.742;2023-05-10T03:31:22;12.60;71.50
79760;DHT22;69248;42.138;24.742;2023-05-10T03:33:51;12.60;71.70
79760;DHT22;69248;42.138;24.742;2023-05-10T03:36:19;12.60;72.00
79760;DHT22;69248;42.138;24.742;2023-05-10T03:38:47;12.60;72.00
79760;DHT22;69248;42.138;24.742;2023-05-10T03:41:14;12.60;72.00
79760;DHT22;69248;42.138;24.742;2023-05-10T03:43:42;12.60;72.00
79760;DHT22;69248;42.138;24.742;2023-05-10T03:46:10;12.60;72.00
79760;DHT22;69248;42.138;24.742;2023-05-10T03:48:37;12.60;71.70
79760;DHT22;69248;42.138;24.742;2023-05-10T03:51:05;12.70;71.70
79760;DHT22;69248;42.138;24.742;2023-05-10T03:53:32;12.70;71.70
79760;DHT22;69248;42.138;24.742;2023-05-10T03:56:00;12.80;71.70
79760;DHT22;69248;42.138;24.742;2023-05-10T03:58:28;12.80;71.50
79760;DHT22;69248;42.138;24.742;2023-05-10T04:00:55;12.80;71.20
79760;DHT22;69248;42.138;24.742;2023-05-10T04:03:23;12.90;70.70
79760;DHT22;69248;42.138;24.742;2023-05-10T04:06:00;12.90;70.80
79760;DHT22;69248;42.138;24.742;2023-05-10T04:08:28;12.90;70.40
79760;DHT22;69248;42.138;24.742;2023-05-10T04:11:06;12.90;70.60
79760;DHT22;69248;42.138;24.742;2023-05-10T04:13:34;12.90;70.60
79760;DHT22;69248;42.138;24.742;2023-05-10T04:16:02;13.00;70.80
79760;DHT22;69248;42.138;24.742;2023-05-10T04:18:30;13.10;69.90
79760;DHT22;69248;42.138;24.742;2023-05-10T04:20:58;13.20;69.70
79760;DHT22;69248;42.138;24.742;2023-05-10T04:23:26;13.20;69.70
79760;DHT22;69248;42.138;24.742;2023-05-10T04:26:01;13.30;69.90
79760;DHT22;69248;42.138;24.742;2023-05-10T04:28:28;13.40;69.20
79760;DHT22;69248;42.138;24.742;2023-05-10T04:31:03;13.60;68.80
79760;DHT22;69248;42.138;24.742;2023-05-10T04:33:31;13.70;67.90
79760;DHT22;69248;42.138;24.742;2023-05-10T04:35:59;13.70;66.60
79760;DHT22;69248;42.138;24.742;2023-05-10T04:38:27;13.70;66.80
79760;DHT22;69248;42.138;24.742;2023-05-10T04:41:03;13.70;66.90
79760;DHT22;69248;42.138;24.742;2023-05-10T04:43:24;13.60;66.80
79760;DHT22;69248;42.138;24.742;2023-05-10T04:45:51;13.70;66.80
79760;DHT22;69248;42.138;24.742;2023-05-10T04:48:19;13.80;66.60
79760;DHT22;69248;42.138;24.742;2023-05-10T04:50:46;13.80;66.30
79760;DHT22;69248;42.138;24.742;2023-05-10T04:53:14;13.90;65.60
79760;DHT22;69248;42.138;24.742;2023-05-10T04:55:42;13.90;65.30
79760;DHT22;69248;42.138;24.742;2023-05-10T04:58:09;13.90;65.30
79760;DHT22;69248;42.138;24.742;2023-05-10T05:00:37;13.90;65.60
79760;DHT22;69248;42.138;24.742;2023-05-10T05:03:04;14.00;65.90
79760;DHT22;69248;42.138;24.742;2023-05-10T05:05:32;14.00;65.60
79760;DHT22;69248;42.138;24.742;2023-05-10T05:07:59;14.00;65.20
79760;DHT22;69248;42.138;24.742;2023-05-10T05:10:27;14.00;65.20
79760;DHT22;69248;42.138;24.742;2023-05-10T05:12:55;14.10;64.40
79760;DHT22;69248;42.138;24.742;2023-05-10T05:15:22;14.10;64.10
79760;DHT22;69248;42.138;24.742;2023-05-10T05:17:50;14.20;63.70
79760;DHT22;69248;42.138;24.742;2023-05-10T05:20:18;14.30;63.50
79760;DHT22;69248;42.138;24.742;2023-05-10T05:22:45;14.40;63.40
79760;DHT22;69248;42.138;24.742;2023-05-10T05:25:13;14.40;63.80
79760;DHT22;69248;42.138;24.742;2023-05-10T05:27:41;14.50;62.60
79760;DHT22;69248;42.138;24.742;2023-05-10T05:30:09;14.50;61.70
79760;DHT22;69248;42.138;24.742;2023-05-10T05:32:37;14.60;61.70
79760;DHT22;69248;42.138;24.742;2023-05-10T05:35:04;14.60;62.00
79760;DHT22;69248;42.138;24.742;2023-05-10T05:37:32;14.60;62.00
79760;DHT22;69248;42.138;24.742;2023-05-10T05:40:00;14.70;62.20
79760;DHT22;69248;42.138;24.742;2023-05-10T05:42:28;14.70;62.30
79760;DHT22;69248;42.138;24.742;2023-05-10T05:44:55;14.80;62.10
79760;DHT22;69248;42.138;24.742;2023-05-10T05:47:23;14.70;62.30
79760;DHT22;69248;42.138;24.742;2023-05-10T05:49:51;14.70;62.60
79760;DHT22;69248;42.138;24.742;2023-05-10T05:52:18;14.80;62.60
79760;DHT22;69248;42.138;24.742;2023-05-10T05:54:47;14.70;62.00
79760;DHT22;69248;42.138;24.742;2023-05-10T05:57:15;14.80;62.10
79760;DHT22;69248;42.138;24.742;2023-05-10T05:59:42;14.90;62.10
79760;DHT22;69248;42.138;24.742;2023-05-10T06:02:10;15.00;61.30
79760;DHT22;69248;42.138;24.742;2023-05-10T06:04:38;15.10;60.80
79760;DHT22;69248;42.138;24.742;2023-05-10T06:07:06;15.20;60.30
79760;DHT22;69248;42.138;24.742;2023-05-10T06:09:33;15.30;60.00
79760;DHT22;69248;42.138;24.742;2023-05-10T06:12:01;15.40;60.30
79760;DHT22;69248;42.138;24.742;2023-05-10T06:14:29;15.50;59.80
79760;DHT22;69248;42.138;24.742;2023-05-10T06:16:56;15.60;60.50
79760;DHT22;69248;42.138;24.742;2023-05-10T06:19:25;15.70;59.10
79760;DHT22;69248;42.138;24.742;2023-05-10T06:24:38;16.00;58.70
79760;DHT22;69248;42.138;24.742;2023-05-10T06:27:06;16.10;57.80
79760;DHT22;69248;42.138;24.742;2023-05-10T06:29:34;16.20;57.90
79760;DHT22;69248;42.138;24.742;2023-05-10T06:32:02;16.30;57.00
79760;DHT22;69248;42.138;24.742;2023-05-10T06:34:29;16.40;56.80
79760;DHT22;69248;42.138;24.742;2023-05-10T06:36:58;16.40;56.40
79760;DHT22;69248;42.138;24.742;2023-05-10T06:39:25;16.50;56.10
79760;DHT22;69248;42.138;24.742;2023-05-10T06:41:53;16.60;55.70
79760;DHT22;69248;42.138;24.742;2023-05-10T06:44:20;16.70;56.20
79760;DHT22;69248;42.138;24.742;2023-05-10T06:46:48;16.80;55.70
79760;DHT22;69248;42.138;24.742;2023-05-10T06:49:16;16.90;54.90
79760;DHT22;69248;42.138;24.742;2023-05-10T06:51:44;16.80;55.10
79760;DHT22;69248;42.138;24.742;2023-05-10T06:54:11;17.00;55.50
79760;DHT22;69248;42.138;24.742;2023-05-10T06:56:39;17.10;54.60
79760;DHT22;69248;42.138;24.742;2023-05-10T06:59:06;17.10;54.40
79760;DHT22;69248;42.138;24.742;2023-05-10T07:01:34;17.30;54.10
79760;DHT22;69248;42.138;24.742;2023-05-10T07:04:02;17.30;53.70
79760;DHT22;69248;42.138;24.742;2023-05-10T07:06:30;17.30;53.50
79760;DHT22;69248;42.138;24.742;2023-05-10T07:08:57;17.30;53.60
79760;DHT22;69248;42.138;24.742;2023-05-10T07:11:25;17.40;53.50
79760;DHT22;69248;42.138;24.742;2023-05-10T07:13:53;17.50;53.20
79760;DHT22;69248;42.138;24.742;2023-05-10T07:16:20;17.70;52.70
79760;DHT22;69248;42.138;24.742;2023-05-10T07:18:48;17.80;52.50
79760;DHT22;69248;42.138;24.742;2023-05-10T07:21:17;17.90;52.40
79760;DHT22;69248;42.138;24.742;2023-05-10T07:23:44;18.00;52.00
79760;DHT22;69248;42.138;24.742;2023-05-10T07:26:12;17.90;52.10
79760;DHT22;69248;42.138;24.742;2023-05-10T07:28:41;18.00;52.00
79760;DHT22;69248;42.138;24.742;2023-05-10T07:31:09;18.10;51.50
79760;DHT22;69248;42.138;24.742;2023-05-10T07:33:36;18.30;51.00
79760;DHT22;69248;42.138;24.742;2023-05-10T07:36:04;18.60;50.20
79760;DHT22;69248;42.138;24.742;2023-05-10T07:38:32;18.70;50.20
79760;DHT22;69248;42.138;24.742;2023-05-10T07:40:59;18.80;50.00
79760;DHT22;69248;42.138;24.742;2023-05-10T07:43:27;18.90;49.90
79760;DHT22;69248;42.138;24.742;2023-05-10T07:45:55;18.90;49.30
79760;DHT22;69248;42.138;24.742;2023-05-10T07:48:24;19.10;49.10
79760;DHT22;69248;42.138;24.742;2023-05-10T07:50:51;19.20;48.20
79760;DHT22;69248;42.138;24.742;2023-05-10T07:53:20;19.20;48.00
79760;DHT22;69248;42.138;24.742;2023-05-10T07:55:52;19.20;47.80
79760;DHT22;69248;42.138;24.742;2023-05-10T07:58:20;19.20;47.80
79760;DHT22;69248;42.138;24.742;2023-05-10T08:00:51;19.30;47.70
79760;DHT22;69248;42.138;24.742;2023-05-10T08:03:18;19.40;47.80
79760;DHT22;69248;42.138;24.742;2023-05-10T08:05:46;19.40;46.90
79760;DHT22;69248;42.138;24.742;2023-05-10T08:08:14;19.40;46.70
79760;DHT22;69248;42.138;24.742;2023-05-10T08:10:41;19.40;46.70
79760;DHT22;69248;42.138;24.742;2023-05-10T08:13:09;19.40;47.10
79760;DHT22;69248;42.138;24.742;2023-05-10T08:15:37;19.60;46.50
79760;DHT22;69248;42.138;24.742;2023-05-10T08:18:04;19.60;46.40
79760;DHT22;69248;42.138;24.742;2023-05-10T08:20:32;19.60;47.00
79760;DHT22;69248;42.138;24.742;2023-05-10T08:22:59;19.70;45.80
79760;DHT22;69248;42.138;24.742;2023-05-10T08:25:27;20.00;45.60
79760;DHT22;69248;42.138;24.742;2023-05-10T08:27:55;20.40;43.80
79760;DHT22;69248;42.138;24.742;2023-05-10T08:30:23;20.50;43.50
79760;DHT22;69248;42.138;24.742;2023-05-10T08:32:50;20.60;43.20
79760;DHT22;69248;42.138;24.742;2023-05-10T08:35:18;20.60;43.00
79760;DHT22;69248;42.138;24.742;2023-05-10T08:37:48;20.40;43.40
79760;DHT22;69248;42.138;24.742;2023-05-10T08:40:19;20.60;43.30
79760;DHT22;69248;42.138;24.742;2023-05-10T08:42:55;20.80;42.90
79760;DHT22;69248;42.138;24.742;2023-05-10T08:45:22;21.00;42.20
79760;DHT22;69248;42.138;24.742;2023-05-10T08:47:51;21.00;42.10
79760;DHT22;69248;42.138;24.742;2023-05-10T08:50:20;21.00;42.30
79760;DHT22;69248;42.138;24.742;2023-05-10T08:52:50;21.00;41.50
79760;DHT22;69248;42.138;24.742;2023-05-10T08:55:19;20.80;42.20
79760;DHT22;69248;42.138;24.742;2023-05-10T08:57:47;20.90;42.40
79760;DHT22;69248;42.138;24.742;2023-05-10T09:00:15;21.00;42.10
79760;DHT22;69248;42.138;24.742;2023-05-10T09:02:43;21.00;41.40
79760;DHT22;69248;42.138;24.742;2023-05-10T09:05:12;21.00;41.30
79760;DHT22;69248;42.138;24.742;2023-05-10T09:07:42;20.90;42.10
79760;DHT22;69248;42.138;24.742;2023-05-10T09:10:11;20.80;42.10
79760;DHT22;69248;42.138;24.742;2023-05-10T09:12:39;20.70;41.80
79760;DHT22;69248;42.138;24.742;2023-05-10T09:15:07;20.70;42.50
79760;DHT22;69248;42.138;24.742;2023-05-10T09:17:37;20.60;43.20
79760;DHT22;69248;42.138;24.742;2023-05-10T09:20:06;20.60;42.90
79760;DHT22;69248;42.138;24.742;2023-05-10T09:22:34;20.70;43.30
79760;DHT22;69248;42.138;24.742;2023-05-10T09:27:38;20.90;42.00
79760;DHT22;69248;42.138;24.742;2023-05-10T09:30:07;20.90;41.60
79760;DHT22;69248;42.138;24.742;2023-05-10T09:32:48;20.70;41.30
79760;DHT22;69248;42.138;24.742;2023-05-10T09:35:15;20.50;41.60
79760;DHT22;69248;42.138;24.742;2023-05-10T09:37:46;20.40;42.20
79760;DHT22;69248;42.138;24.742;2023-05-10T09:40:16;20.50;42.60
79760;DHT22;69248;42.138;24.742;2023-05-10T09:42:54;20.60;42.80
79760;DHT22;69248;42.138;24.742;2023-05-10T09:45:24;20.70;41.80
79760;DHT22;69248;42.138;24.742;2023-05-10T09:47:51;20.80;40.90
79760;DHT22;69248;42.138;24.742;2023-05-10T09:50:20;20.80;40.40
79760;DHT22;69248;42.138;24.742;2023-05-10T09:53:01;20.80;41.00
79760;DHT22;69248;42.138;24.742;2023-05-10T09:55:40;21.00;40.80
79760;DHT22;69248;42.138;24.742;2023-05-10T09:58:10;21.40;40.00
79760;DHT22;69248;42.138;24.742;2023-05-10T10:00:39;21.90;38.90
79760;DHT22;69248;42.138;24.742;2023-05-10T10:03:12;22.20;38.30
79760;DHT22;69248;42.138;24.742;2023-05-10T10:05:41;22.30;37.90
79760;DHT22;69248;42.138;24.742;2023-05-10T10:08:10;22.40;37.50
79760;DHT22;69248;42.138;24.742;2023-05-10T10:10:39;22.20;37.20
79760;DHT22;69248;42.138;24.742;2023-05-10T10:13:11;22.00;38.10
79760;DHT22;69248;42.138;24.742;2023-05-10T10:15:39;21.90;38.40
79760;DHT22;69248;42.138;24.742;2023-05-10T10:18:06;22.00;38.70
79760;DHT22;69248;42.138;24.742;2023-05-10T10:20:36;22.20;38.50
79760;DHT22;69248;42.138;24.742;2023-05-10T10:23:04;22.20;37.70
79760;DHT22;69248;42.138;24.742;2023-05-10T10:25:32;22.10;37.60
79760;DHT22;69248;42.138;24.742;2023-05-10T10:28:19;22.10;38.30
79760;DHT22;69248;42.138;24.742;2023-05-10T10:30:49;22.10;38.60
79760;DHT22;69248;42.138;24.742;2023-05-10T10:35:51;22.20;38.20
79760;DHT22;69248;42.138;24.742;2023-05-10T10:38:20;22.40;38.30
79760;DHT22;69248;42.138;24.742;2023-05-10T10:40:48;22.50;37.30
79760;DHT22;69248;42.138;24.742;2023-05-10T10:46:09;23.00;36.60
79760;DHT22;69248;42.138;24.742;2023-05-10T10:48:38;23.20;34.70
79760;DHT22;69248;42.138;24.742;2023-05-10T10:51:06;23.20;34.60
79760;DHT22;69248;42.138;24.742;2023-05-10T10:53:33;23.30;34.30
79760;DHT22;69248;42.138;24.742;2023-05-10T10:56:09;23.30;33.90
79760;DHT22;69248;42.138;24.742;2023-05-10T10:58:39;23.40;33.70
79760;DHT22;69248;42.138;24.742;2023-05-10T11:01:15;23.60;32.30
79760;DHT22;69248;42.138;24.742;2023-05-10T11:06:32;23.80;32.40
79760;DHT22;69248;42.138;24.742;2023-05-10T11:09:08;23.90;32.10
79760;DHT22;69248;42.138;24.742;2023-05-10T11:11:48;23.90;31.10
79760;DHT22;69248;42.138;24.742;2023-05-10T11:14:07;24.20;31.10
79760;DHT22;69248;42.138;24.742;2023-05-10T11:16:42;24.70;31.40
79760;DHT22;69248;42.138;24.742;2023-05-10T11:19:14;25.10;31.50
79760;DHT22;69248;42.138;24.742;2023-05-10T11:21:47;25.40;31.10
79760;DHT22;69248;42.138;24.742;2023-05-10T11:24:20;25.40;30.20
79760;DHT22;69248;42.138;24.742;2023-05-10T11:26:50;25.10;30.20
79760;DHT22;69248;42.138;24.742;2023-05-10T11:29:20;24.90;30.90
79760;DHT22;69248;42.138;24.742;2023-05-10T11:31:48;24.90;30.70
79760;DHT22;69248;42.138;24.742;2023-05-10T11:34:28;25.10;29.90
79760;DHT22;69248;42.138;24.742;2023-05-10T11:36:57;25.20;29.90
79760;DHT22;69248;42.138;24.742;2023-05-10T11:39:30;25.40;29.90
79760;DHT22;69248;42.138;24.742;2023-05-10T11:41:58;25.50;29.50
79760;DHT22;69248;42.138;24.742;2023-05-10T11:44:30;25.30;29.60
79760;DHT22;69248;42.138;24.742;2023-05-10T11:47:01;25.30;29.60
79760;DHT22;69248;42.138;24.742;2023-05-10T11:49:29;25.40;29.50
79760;DHT22;69248;42.138;24.742;2023-05-10T11:52:06;25.40;29.30
79760;DHT22;69248;42.138;24.742;2023-05-10T11:54:37;25.40;29.40
79760;DHT22;69248;42.138;24.742;2023-05-10T11:57:07;25.60;29.20
79760;DHT22;69248;42.138;24.742;2023-05-10T11:59:34;25.70;28.70
79760;DHT22;69248;42.138;24.742;2023-05-10T12:02:02;25.70;28.00
79760;DHT22;69248;42.138;24.742;2023-05-10T12:04:30;25.60;28.30
79760;DHT22;69248;42.138;24.742;2023-05-10T12:06:59;25.50;28.00
79760;DHT22;69248;42.138;24.742;2023-05-10T12:09:26;25.40;28.30
79760;DHT22;69248;42.138;24.742;2023-05-10T12:11:56;25.50;28.40
79760;DHT22;69248;42.138;24.742;2023-05-10T12:14:23;25.60;28.00
79760;DHT22;69248;42.138;24.742;2023-05-10T12:16:51;25.90;27.90
79760;DHT22;69248;42.138;24.742;2023-05-10T12:19:19;26.10;27.60
79760;DHT22;69248;42.138;24.742;2023-05-10T12:21:50;26.10;27.30
79760;DHT22;69248;42.138;24.742;2023-05-10T12:24:19;26.30;27.40
79760;DHT22;69248;42.138;24.742;2023-05-10T12:26:47;27.00;26.80
79760;DHT22;69248;42.138;24.742;2023-05-10T12:29:17;27.70;26.80
79760;DHT22;69248;42.138;24.742;2023-05-10T12:31:55;28.20;25.20
79760;DHT22;69248;42.138;24.742;2023-05-10T12:34:33;28.70;24.20
79760;DHT22;69248;42.138;24.742;2023-05-10T12:37:04;29.30;23.50
79760;DHT22;69248;42.138;24.742;2023-05-10T12:39:41;29.60;24.30
79760;DHT22;69248;42.138;24.742;2023-05-10T12:42:10;29.80;23.80
79760;DHT22;69248;42.138;24.742;2023-05-10T12:44:38;30.00;23.60
79760;DHT22;69248;42.138;24.742;2023-05-10T12:47:05;29.90;23.80
79760;DHT22;69248;42.138;24.742;2023-05-10T12:49:33;29.80;24.20
79760;DHT22;69248;42.138;24.742;2023-05-10T12:52:01;29.70;23.90
79760;DHT22;69248;42.138;24.742;2023-05-10T12:54:28;29.90;23.60
79760;DHT22;69248;42.138;24.742;2023-05-10T12:56:56;31.40;22.00
79760;DHT22;69248;42.138;24.742;2023-05-10T12:59:23;31.60;21.50
79760;DHT22;69248;42.138;24.742;2023-05-10T13:01:51;31.50;21.80
79760;DHT22;69248;42.138;24.742;2023-05-10T13:04:18;32.10;20.80
79760;DHT22;69248;42.138;24.742;2023-05-10T13:06:46;31.60;20.50
79760;DHT22;69248;42.138;24.742;2023-05-10T13:09:14;33.00;19.90
79760;DHT22;69248;42.138;24.742;2023-05-10T13:11:41;36.20;17.90
79760;DHT22;69248;42.138;24.742;2023-05-10T13:14:09;38.60;15.70
79760;DHT22;69248;42.138;24.742;2023-05-10T13:16:37;40.30;14.70
79760;DHT22;69248;42.138;24.742;2023-05-10T13:19:04;40.30;14.50
79760;DHT22;69248;42.138;24.742;2023-05-10T13:21:32;38.70;15.50
79760;DHT22;69248;42.138;24.742;2023-05-10T13:23:59;38.30;15.90
79760;DHT22;69248;42.138;24.742;2023-05-10T13:26:28;38.10;15.40
79760;DHT22;69248;42.138;24.742;2023-05-10T13:28:56;36.70;16.60
79760;DHT22;69248;42.138;24.742;2023-05-10T13:31:24;35.10;17.50
79760;DHT22;69248;42.138;24.742;2023-05-10T13:33:52;33.50;18.90
79760;DHT22;69248;42.138;24.742;2023-05-10T13:36:20;31.80;20.60
79760;DHT22;69248;42.138;24.742;2023-05-10T13:38:47;30.20;21.70
79760;DHT22;69248;42.138;24.742;2023-05-10T13:41:15;28.80;23.10
79760;DHT22;69248;42.138;24.742;2023-05-10T13:43:42;27.70;24.00
79760;DHT22;69248;42.138;24.742;2023-05-10T13:46:10;27.00;25.00
79760;DHT22;69248;42.138;24.742;2023-05-10T13:48:37;26.60;25.60
79760;DHT22;69248;42.138;24.742;2023-05-10T13:51:05;26.20;26.00
79760;DHT22;69248;42.138;24.742;2023-05-10T13:53:33;26.00;26.70
79760;DHT22;69248;42.138;24.742;2023-05-10T13:56:36;25.90;26.80
79760;DHT22;69248;42.138;24.742;2023-05-10T13:59:04;26.10;26.80
79760;DHT22;69248;42.138;24.742;2023-05-10T14:01:31;26.10;27.00
79760;DHT22;69248;42.138;24.742;2023-05-10T14:03:59;25.90;27.30
79760;DHT22;69248;42.138;24.742;2023-05-10T14:06:27;25.70;27.60
79760;DHT22;69248;42.138;24.742;2023-05-10T14:08:54;25.60;27.60
79760;DHT22;69248;42.138;24.742;2023-05-10T14:11:22;25.60;27.50
79760;DHT22;69248;42.138;24.742;2023-05-10T14:13:50;25.60;28.00
79760;DHT22;69248;42.138;24.742;2023-05-10T14:16:18;27.70;26.00
79760;DHT22;69248;42.138;24.742;2023-05-10T14:18:46;29.90;23.60
79760;DHT22;69248;42.138;24.742;2023-05-10T14:21:14;31.50;21.40
79760;DHT22;69248;42.138;24.742;2023-05-10T14:23:41;32.00;20.70
79760;DHT22;69248;42.138;24.742;2023-05-10T14:26:09;32.00;20.00
79760;DHT22;69248;42.138;24.742;2023-05-10T14:28:37;32.10;20.10
79760;DHT22;69248;42.138;24.742;2023-05-10T14:31:04;32.70;19.90
79760;DHT22;69248;42.138;24.742;2023-05-10T14:33:32;33.00;19.90
79760;DHT22;69248;42.138;24.742;2023-05-10T14:36:00;32.60;20.00
79760;DHT22;69248;42.138;24.742;2023-05-10T14:38:29;32.20;20.20
79760;DHT22;69248;42.138;24.742;2023-05-10T14:40:58;31.60;20.90
79760;DHT22;69248;42.138;24.742;2023-05-10T14:43:25;30.80;21.40
79760;DHT22;69248;42.138;24.742;2023-05-10T14:45:54;30.30;22.30
79760;DHT22;69248;42.138;24.742;2023-05-10T14:48:21;29.90;22.50
79760;DHT22;69248;42.138;24.742;2023-05-10T14:50:49;29.10;23.60
79760;DHT22;69248;42.138;24.742;2023-05-10T14:53:34;28.60;24.30
79760;DHT22;69248;42.138;24.742;2023-05-10T14:56:02;28.20;24.50
79760;DHT22;69248;42.138;24.742;2023-05-10T14:58:30;27.30;25.60
79760;DHT22;69248;42.138;24.742;2023-05-10T15:00:57;26.60;26.30
79760;DHT22;69248;42.138;24.742;2023-05-10T15:03:25;26.00;27.00
79760;DHT22;69248;42.138;24.742;2023-05-10T15:05:52;25.50;27.80
79760;DHT22;69248;42.138;24.742;2023-05-10T15:08:20;25.00;28.20
79760;DHT22;69248;42.138;24.742;2023-05-10T15:10:48;24.50;29.00
79760;DHT22;69248;42.138;24.742;2023-05-10T15:13:15;24.20;29.40
79760;DHT22;69248;42.138;24.742;2023-05-10T15:15:43;23.80;30.20
79760;DHT22;69248;42.138;24.742;2023-05-10T15:18:10;23.50;30.80
79760;DHT22;69248;42.138;24.742;2023-05-10T15:20:38;23.10;31.50
79760;DHT22;69248;42.138;24.742;2023-05-10T15:23:05;22.70;32.30
79760;DHT22;69248;42.138;24.742;2023-05-10T15:25:33;22.40;32.40
79760;DHT22;69248;42.138;24.742;2023-05-10T15:28:04;22.20;33.40
79760;DHT22;69248;42.138;24.742;2023-05-10T15:30:32;21.90;34.00
79760;DHT22;69248;42.138;24.742;2023-05-10T15:33:00;21.70;34.10
79760;DHT22;69248;42.138;24.742;2023-05-10T15:35:28;21.40;35.30
79760;DHT22;69248;42.138;24.742;2023-05-10T15:37:55;21.30;35.70
79760;DHT22;69248;42.138;24.742;2023-05-10T15:40:23;21.00;36.30
79760;DHT22;69248;42.138;24.742;2023-05-10T15:42:50;20.80;36.90
79760;DHT22;69248;42.138;24.742;2023-05-10T15:45:18;20.70;36.80
79760;DHT22;69248;42.138;24.742;2023-05-10T15:47:45;20.50;37.00
79760;DHT22;69248;42.138;24.742;2023-05-10T15:50:15;20.30;36.50
79760;DHT22;69248;42.138;24.742;2023-05-10T15:52:43;20.10;37.10
79760;DHT22;69248;42.138;24.742;2023-05-10T15:55:10;19.90;37.30